sensor_id;sensor_type;location;lat;lon;timestamp;P1;durP1;ratioP1;P2;durP2;ratioP2
62861;SDS011;48953;53.110;5.592;2023-08-08T00:00:13;6.97;;;1.85;;
62861;SDS011;48953;53.110;5.592;2023-08-08T00:02:41;4.63;;;1.85;;
62861;SDS011;48953;53.110;5.592;2023-08-08T00:05:07;6.63;;;2.03;;
62861;SDS011;48953;53.110;5.592;2023-08-08T00:07:33;3.40;;;1.90;;
62861;SDS011;48953;53.110;5.592;2023-08-08T00:09:59;6.47;;;1.85;;
62861;SDS011;48953;53.110;5.592;2023-08-08T00:12:25;5.68;;;1.80;;
62861;SDS011;48953;53.110;5.592;2023-08-08T00:14:51;6.40;;;2.05;;
62861;SDS011;48953;53.110;5.592;2023-08-08T00:17:17;4.85;;;1.90;;
62861;SDS011;48953;53.110;5.592;2023-08-08T00:19:43;5.05;;;2.03;;
62861;SDS011;48953;53.110;5.592;2023-08-08T00:22:09;2.47;;;1.55;;
62861;SDS011;48953;53.110;5.592;2023-08-08T00:24:35;3.40;;;2.00;;
62861;SDS011;48953;53.110;5.592;2023-08-08T00:27:01;3.20;;;2.15;;
62861;SDS011;48953;53.110;5.592;2023-08-08T00:29:27;5.55;;;2.03;;
62861;SDS011;48953;53.110;5.592;2023-08-08T00:31:53;2.10;;;1.50;;
62861;SDS011;48953;53.110;5.592;2023-08-08T00:34:20;6.13;;;1.70;;
62861;SDS011;48953;53.110;5.592;2023-08-08T00:36:46;6.10;;;2.28;;
62861;SDS011;48953;53.110;5.592;2023-08-08T00:39:12;11.00;;;3.30;;
62861;SDS011;48953;53.110;5.592;2023-08-08T00:41:38;3.65;;;1.80;;
62861;SDS011;48953;53.110;5.592;2023-08-08T00:44:04;3.75;;;2.13;;
62861;SDS011;48953;53.110;5.592;2023-08-08T00:46:30;5.80;;;2.20;;
62861;SDS011;48953;53.110;5.592;2023-08-08T00:48:57;4.45;;;1.85;;
62861;SDS011;48953;53.110;5.592;2023-08-08T00:51:23;6.88;;;2.85;;
62861;SDS011;48953;53.110;5.592;2023-08-08T00:53:49;4.00;;;2.20;;
62861;SDS011;48953;53.110;5.592;2023-08-08T00:56:16;5.82;;;1.95;;
62861;SDS011;48953;53.110;5.592;2023-08-08T00:58:43;7.05;;;2.35;;
62861;SDS011;48953;53.110;5.592;2023-08-08T01:01:12;7.15;;;1.80;;
62861;SDS011;48953;53.110;5.592;2023-08-08T01:03:38;4.07;;;1.52;;
62861;SDS011;48953;53.110;5.592;2023-08-08T01:08:40;8.35;;;1.90;;
62861;SDS011;48953;53.110;5.592;2023-08-08T01:11:08;4.55;;;1.80;;
62861;SDS011;48953;53.110;5.592;2023-08-08T01:13:34;6.82;;;2.17;;
62861;SDS011;48953;53.110;5.592;2023-08-08T01:16:01;4.30;;;1.80;;
62861;SDS011;48953;53.110;5.592;2023-08-08T01:18:28;6.70;;;1.60;;
62861;SDS011;48953;53.110;5.592;2023-08-08T01:20:54;4.88;;;1.70;;
62861;SDS011;48953;53.110;5.592;2023-08-08T01:23:26;3.22;;;1.50;;
62861;SDS011;48953;53.110;5.592;2023-08-08T01:25:54;5.95;;;2.03;;
62861;SDS011;48953;53.110;5.592;2023-08-08T01:28:21;3.70;;;1.50;;
62861;SDS011;48953;53.110;5.592;2023-08-08T01:30:48;4.32;;;1.52;;
62861;SDS011;48953;53.110;5.592;2023-08-08T01:33:14;2.75;;;1.60;;
62861;SDS011;48953;53.110;5.592;2023-08-08T01:35:41;5.53;;;1.42;;
62861;SDS011;48953;53.110;5.592;2023-08-08T01:38:14;6.17;;;1.57;;
62861;SDS011;48953;53.110;5.592;2023-08-08T01:40:43;5.57;;;1.80;;
62861;SDS011;48953;53.110;5.592;2023-08-08T01:43:10;6.95;;;1.70;;
62861;SDS011;48953;53.110;5.592;2023-08-08T01:45:36;4.68;;;1.70;;
62861;SDS011;48953;53.110;5.592;2023-08-08T01:48:09;2.30;;;1.48;;
62861;SDS011;48953;53.110;5.592;2023-08-08T01:50:36;5.75;;;1.77;;
62861;SDS011;48953;53.110;5.592;2023-08-08T01:53:03;7.28;;;1.75;;
62861;SDS011;48953;53.110;5.592;2023-08-08T01:55:29;4.05;;;1.60;;
62861;SDS011;48953;53.110;5.592;2023-08-08T01:57:55;5.75;;;1.50;;
62861;SDS011;48953;53.110;5.592;2023-08-08T02:00:21;4.40;;;1.70;;
62861;SDS011;48953;53.110;5.592;2023-08-08T02:02:47;3.65;;;1.70;;
62861;SDS011;48953;53.110;5.592;2023-08-08T02:05:14;4.70;;;1.73;;
62861;SDS011;48953;53.110;5.592;2023-08-08T02:07:40;7.50;;;2.15;;
62861;SDS011;48953;53.110;5.592;2023-08-08T02:10:06;5.10;;;1.50;;
62861;SDS011;48953;53.110;5.592;2023-08-08T02:12:32;4.05;;;1.40;;
62861;SDS011;48953;53.110;5.592;2023-08-08T02:14:58;4.65;;;1.40;;
62861;SDS011;48953;53.110;5.592;2023-08-08T02:17:24;6.50;;;1.50;;
62861;SDS011;48953;53.110;5.592;2023-08-08T02:19:51;7.07;;;1.50;;
62861;SDS011;48953;53.110;5.592;2023-08-08T02:22:17;6.43;;;1.42;;
62861;SDS011;48953;53.110;5.592;2023-08-08T02:24:43;5.47;;;1.20;;
62861;SDS011;48953;53.110;5.592;2023-08-08T02:27:11;2.45;;;1.40;;
62861;SDS011;48953;53.110;5.592;2023-08-08T02:29:37;7.47;;;1.50;;
62861;SDS011;48953;53.110;5.592;2023-08-08T02:32:03;5.50;;;1.83;;
62861;SDS011;48953;53.110;5.592;2023-08-08T02:34:29;6.47;;;1.30;;
62861;SDS011;48953;53.110;5.592;2023-08-08T02:36:55;5.95;;;1.40;;
62861;SDS011;48953;53.110;5.592;2023-08-08T02:39:21;4.38;;;1.75;;
62861;SDS011;48953;53.110;5.592;2023-08-08T02:41:47;7.65;;;1.33;;
62861;SDS011;48953;53.110;5.592;2023-08-08T02:44:13;3.60;;;1.50;;
62861;SDS011;48953;53.110;5.592;2023-08-08T02:46:39;4.82;;;1.40;;
62861;SDS011;48953;53.110;5.592;2023-08-08T02:49:05;4.05;;;1.38;;
62861;SDS011;48953;53.110;5.592;2023-08-08T02:51:31;4.13;;;1.75;;
62861;SDS011;48953;53.110;5.592;2023-08-08T02:53:57;2.67;;;1.40;;
62861;SDS011;48953;53.110;5.592;2023-08-08T02:56:23;3.90;;;1.40;;
62861;SDS011;48953;53.110;5.592;2023-08-08T02:58:49;5.22;;;1.30;;
62861;SDS011;48953;53.110;5.592;2023-08-08T03:01:15;4.55;;;1.67;;
62861;SDS011;48953;53.110;5.592;2023-08-08T03:03:41;2.55;;;1.35;;
62861;SDS011;48953;53.110;5.592;2023-08-08T03:06:08;5.72;;;1.20;;
62861;SDS011;48953;53.110;5.592;2023-08-08T03:08:34;9.18;;;1.48;;
62861;SDS011;48953;53.110;5.592;2023-08-08T03:11:00;3.05;;;1.00;;
62861;SDS011;48953;53.110;5.592;2023-08-08T03:13:26;7.90;;;1.58;;
62861;SDS011;48953;53.110;5.592;2023-08-08T03:15:52;5.38;;;1.50;;
62861;SDS011;48953;53.110;5.592;2023-08-08T03:18:18;1.92;;;0.85;;
62861;SDS011;48953;53.110;5.592;2023-08-08T03:20:44;3.58;;;1.00;;
62861;SDS011;48953;53.110;5.592;2023-08-08T03:23:10;2.92;;;1.02;;
62861;SDS011;48953;53.110;5.592;2023-08-08T03:25:36;7.55;;;1.00;;
62861;SDS011;48953;53.110;5.592;2023-08-08T03:28:02;5.57;;;1.20;;
62861;SDS011;48953;53.110;5.592;2023-08-08T03:30:28;4.25;;;1.05;;
62861;SDS011;48953;53.110;5.592;2023-08-08T03:32:54;2.15;;;0.60;;
62861;SDS011;48953;53.110;5.592;2023-08-08T03:35:20;4.22;;;0.90;;
62861;SDS011;48953;53.110;5.592;2023-08-08T03:37:46;1.20;;;0.70;;
62861;SDS011;48953;53.110;5.592;2023-08-08T03:40:12;3.30;;;1.20;;
62861;SDS011;48953;53.110;5.592;2023-08-08T03:42:41;2.83;;;0.60;;
62861;SDS011;48953;53.110;5.592;2023-08-08T03:45:07;3.53;;;0.80;;
62861;SDS011;48953;53.110;5.592;2023-08-08T03:47:33;2.28;;;0.70;;
62861;SDS011;48953;53.110;5.592;2023-08-08T03:49:59;3.40;;;1.00;;
62861;SDS011;48953;53.110;5.592;2023-08-08T03:52:25;4.85;;;0.60;;
62861;SDS011;48953;53.110;5.592;2023-08-08T03:54:51;2.53;;;0.60;;
62861;SDS011;48953;53.110;5.592;2023-08-08T03:57:18;1.35;;;0.60;;
62861;SDS011;48953;53.110;5.592;2023-08-08T03:59:44;4.18;;;0.80;;
62861;SDS011;48953;53.110;5.592;2023-08-08T04:02:10;1.45;;;0.68;;
62861;SDS011;48953;53.110;5.592;2023-08-08T04:04:36;2.08;;;0.90;;
62861;SDS011;48953;53.110;5.592;2023-08-08T04:07:03;4.15;;;1.27;;
62861;SDS011;48953;53.110;5.592;2023-08-08T04:09:29;5.32;;;0.77;;
62861;SDS011;48953;53.110;5.592;2023-08-08T04:11:56;3.63;;;0.70;;
62861;SDS011;48953;53.110;5.592;2023-08-08T04:14:22;3.75;;;0.90;;
62861;SDS011;48953;53.110;5.592;2023-08-08T04:16:48;3.25;;;1.35;;
62861;SDS011;48953;53.110;5.592;2023-08-08T04:19:14;4.88;;;1.17;;
62861;SDS011;48953;53.110;5.592;2023-08-08T04:21:40;4.35;;;0.85;;
62861;SDS011;48953;53.110;5.592;2023-08-08T04:24:06;4.55;;;0.80;;
62861;SDS011;48953;53.110;5.592;2023-08-08T04:26:33;3.03;;;1.10;;
62861;SDS011;48953;53.110;5.592;2023-08-08T04:28:59;3.47;;;1.00;;
62861;SDS011;48953;53.110;5.592;2023-08-08T04:31:25;3.08;;;0.90;;
62861;SDS011;48953;53.110;5.592;2023-08-08T04:33:51;3.97;;;1.27;;
62861;SDS011;48953;53.110;5.592;2023-08-08T04:36:23;3.53;;;1.10;;
62861;SDS011;48953;53.110;5.592;2023-08-08T04:38:49;4.32;;;1.00;;
62861;SDS011;48953;53.110;5.592;2023-08-08T04:41:15;2.90;;;0.90;;
62861;SDS011;48953;53.110;5.592;2023-08-08T04:43:41;4.30;;;1.17;;
62861;SDS011;48953;53.110;5.592;2023-08-08T04:46:07;5.90;;;1.15;;
62861;SDS011;48953;53.110;5.592;2023-08-08T04:48:34;6.90;;;1.25;;
62861;SDS011;48953;53.110;5.592;2023-08-08T04:51:02;5.30;;;0.95;;
62861;SDS011;48953;53.110;5.592;2023-08-08T04:53:28;4.50;;;1.17;;
62861;SDS011;48953;53.110;5.592;2023-08-08T04:55:54;5.93;;;1.13;;
62861;SDS011;48953;53.110;5.592;2023-08-08T04:58:20;4.60;;;1.30;;
62861;SDS011;48953;53.110;5.592;2023-08-08T05:00:46;4.57;;;1.00;;
62861;SDS011;48953;53.110;5.592;2023-08-08T05:03:12;6.97;;;1.08;;
62861;SDS011;48953;53.110;5.592;2023-08-08T05:05:38;3.83;;;0.85;;
62861;SDS011;48953;53.110;5.592;2023-08-08T05:08:04;2.60;;;1.27;;
62861;SDS011;48953;53.110;5.592;2023-08-08T05:10:30;3.08;;;0.93;;
62861;SDS011;48953;53.110;5.592;2023-08-08T05:12:57;5.13;;;0.90;;
62861;SDS011;48953;53.110;5.592;2023-08-08T05:15:23;3.33;;;1.00;;
62861;SDS011;48953;53.110;5.592;2023-08-08T05:17:49;2.35;;;0.70;;
62861;SDS011;48953;53.110;5.592;2023-08-08T05:20:16;3.10;;;0.90;;
62861;SDS011;48953;53.110;5.592;2023-08-08T05:22:42;2.83;;;0.63;;
62861;SDS011;48953;53.110;5.592;2023-08-08T05:25:08;2.40;;;1.10;;
62861;SDS011;48953;53.110;5.592;2023-08-08T05:27:34;3.75;;;0.90;;
62861;SDS011;48953;53.110;5.592;2023-08-08T05:30:00;3.97;;;1.05;;
62861;SDS011;48953;53.110;5.592;2023-08-08T05:32:26;3.08;;;1.05;;
62861;SDS011;48953;53.110;5.592;2023-08-08T05:34:52;6.28;;;0.88;;
62861;SDS011;48953;53.110;5.592;2023-08-08T05:37:20;3.70;;;1.00;;
62861;SDS011;48953;53.110;5.592;2023-08-08T05:39:46;5.50;;;0.80;;
62861;SDS011;48953;53.110;5.592;2023-08-08T05:42:12;3.13;;;0.80;;
62861;SDS011;48953;53.110;5.592;2023-08-08T05:44:38;3.67;;;0.85;;
62861;SDS011;48953;53.110;5.592;2023-08-08T05:47:06;3.70;;;0.65;;
62861;SDS011;48953;53.110;5.592;2023-08-08T05:49:32;2.55;;;0.75;;
62861;SDS011;48953;53.110;5.592;2023-08-08T05:51:58;3.75;;;0.73;;
62861;SDS011;48953;53.110;5.592;2023-08-08T05:54:24;4.45;;;0.75;;
62861;SDS011;48953;53.110;5.592;2023-08-08T05:56:50;6.43;;;1.13;;
62861;SDS011;48953;53.110;5.592;2023-08-08T05:59:16;4.35;;;0.90;;
62861;SDS011;48953;53.110;5.592;2023-08-08T06:01:44;2.88;;;0.50;;
62861;SDS011;48953;53.110;5.592;2023-08-08T06:04:10;4.05;;;0.70;;
62861;SDS011;48953;53.110;5.592;2023-08-08T06:06:36;2.35;;;0.65;;
62861;SDS011;48953;53.110;5.592;2023-08-08T06:09:02;4.80;;;0.88;;
62861;SDS011;48953;53.110;5.592;2023-08-08T06:11:28;4.53;;;0.70;;
62861;SDS011;48953;53.110;5.592;2023-08-08T06:13:54;4.07;;;0.77;;
62861;SDS011;48953;53.110;5.592;2023-08-08T06:16:20;4.05;;;0.80;;
62861;SDS011;48953;53.110;5.592;2023-08-08T06:18:46;6.47;;;1.02;;
62861;SDS011;48953;53.110;5.592;2023-08-08T06:21:12;3.58;;;0.80;;
62861;SDS011;48953;53.110;5.592;2023-08-08T06:23:38;3.25;;;0.73;;
62861;SDS011;48953;53.110;5.592;2023-08-08T06:26:05;5.53;;;1.05;;
62861;SDS011;48953;53.110;5.592;2023-08-08T06:28:31;3.95;;;0.75;;
62861;SDS011;48953;53.110;5.592;2023-08-08T06:30:58;3.38;;;0.95;;
62861;SDS011;48953;53.110;5.592;2023-08-08T06:33:24;3.28;;;0.73;;
62861;SDS011;48953;53.110;5.592;2023-08-08T06:35:50;2.60;;;0.70;;
62861;SDS011;48953;53.110;5.592;2023-08-08T06:38:16;2.13;;;0.80;;
62861;SDS011;48953;53.110;5.592;2023-08-08T06:40:42;2.33;;;0.80;;
62861;SDS011;48953;53.110;5.592;2023-08-08T06:43:08;3.30;;;0.65;;
62861;SDS011;48953;53.110;5.592;2023-08-08T06:45:35;4.78;;;1.00;;
62861;SDS011;48953;53.110;5.592;2023-08-08T06:48:01;3.63;;;0.63;;
62861;SDS011;48953;53.110;5.592;2023-08-08T06:50:27;4.43;;;1.10;;
62861;SDS011;48953;53.110;5.592;2023-08-08T06:52:53;3.45;;;0.93;;
62861;SDS011;48953;53.110;5.592;2023-08-08T06:55:19;3.95;;;0.75;;
62861;SDS011;48953;53.110;5.592;2023-08-08T06:57:45;4.80;;;1.05;;
62861;SDS011;48953;53.110;5.592;2023-08-08T07:00:11;2.92;;;0.80;;
62861;SDS011;48953;53.110;5.592;2023-08-08T07:02:38;3.65;;;0.82;;
62861;SDS011;48953;53.110;5.592;2023-08-08T07:05:04;5.57;;;0.73;;
62861;SDS011;48953;53.110;5.592;2023-08-08T07:07:31;2.65;;;1.13;;
62861;SDS011;48953;53.110;5.592;2023-08-08T07:09:58;3.67;;;0.70;;
62861;SDS011;48953;53.110;5.592;2023-08-08T07:12:24;3.45;;;1.00;;
62861;SDS011;48953;53.110;5.592;2023-08-08T07:14:52;2.03;;;0.70;;
62861;SDS011;48953;53.110;5.592;2023-08-08T07:17:18;3.90;;;0.70;;
62861;SDS011;48953;53.110;5.592;2023-08-08T07:19:44;4.18;;;0.80;;
62861;SDS011;48953;53.110;5.592;2023-08-08T07:22:10;4.05;;;0.80;;
62861;SDS011;48953;53.110;5.592;2023-08-08T07:24:37;4.10;;;1.00;;
62861;SDS011;48953;53.110;5.592;2023-08-08T07:27:04;5.60;;;0.90;;
62861;SDS011;48953;53.110;5.592;2023-08-08T07:29:30;5.25;;;0.80;;
62861;SDS011;48953;53.110;5.592;2023-08-08T07:31:57;3.13;;;0.80;;
62861;SDS011;48953;53.110;5.592;2023-08-08T07:34:23;5.05;;;0.82;;
62861;SDS011;48953;53.110;5.592;2023-08-08T07:36:50;2.70;;;0.77;;
62861;SDS011;48953;53.110;5.592;2023-08-08T07:39:16;2.63;;;0.70;;
62861;SDS011;48953;53.110;5.592;2023-08-08T07:41:42;5.55;;;1.00;;
62861;SDS011;48953;53.110;5.592;2023-08-08T07:44:08;5.72;;;0.85;;
62861;SDS011;48953;53.110;5.592;2023-08-08T07:46:34;3.80;;;0.80;;
62861;SDS011;48953;53.110;5.592;2023-08-08T07:49:00;5.10;;;1.10;;
62861;SDS011;48953;53.110;5.592;2023-08-08T07:51:28;4.32;;;0.88;;
62861;SDS011;48953;53.110;5.592;2023-08-08T07:53:54;3.38;;;0.63;;
62861;SDS011;48953;53.110;5.592;2023-08-08T07:56:20;3.65;;;1.00;;
62861;SDS011;48953;53.110;5.592;2023-08-08T07:58:46;6.57;;;1.33;;
62861;SDS011;48953;53.110;5.592;2023-08-08T08:01:12;5.30;;;0.98;;
62861;SDS011;48953;53.110;5.592;2023-08-08T08:03:39;3.78;;;0.95;;
62861;SDS011;48953;53.110;5.592;2023-08-08T08:06:05;4.43;;;0.95;;
62861;SDS011;48953;53.110;5.592;2023-08-08T08:08:31;2.88;;;0.60;;
62861;SDS011;48953;53.110;5.592;2023-08-08T08:10:57;3.53;;;0.98;;
62861;SDS011;48953;53.110;5.592;2023-08-08T08:13:23;3.97;;;1.05;;
62861;SDS011;48953;53.110;5.592;2023-08-08T08:15:49;2.97;;;0.82;;
62861;SDS011;48953;53.110;5.592;2023-08-08T08:18:16;3.28;;;0.70;;
62861;SDS011;48953;53.110;5.592;2023-08-08T08:20:44;1.77;;;0.40;;
62861;SDS011;48953;53.110;5.592;2023-08-08T08:23:11;3.78;;;0.80;;
62861;SDS011;48953;53.110;5.592;2023-08-08T08:25:37;2.47;;;0.80;;
62861;SDS011;48953;53.110;5.592;2023-08-08T08:28:03;4.05;;;0.63;;
62861;SDS011;48953;53.110;5.592;2023-08-08T08:30:30;4.30;;;1.52;;
62861;SDS011;48953;53.110;5.592;2023-08-08T08:32:56;5.15;;;0.98;;
62861;SDS011;48953;53.110;5.592;2023-08-08T08:35:22;3.63;;;0.70;;
62861;SDS011;48953;53.110;5.592;2023-08-08T08:37:48;3.70;;;0.60;;
62861;SDS011;48953;53.110;5.592;2023-08-08T08:40:14;2.40;;;0.77;;
62861;SDS011;48953;53.110;5.592;2023-08-08T08:42:40;2.50;;;0.70;;
62861;SDS011;48953;53.110;5.592;2023-08-08T08:45:08;3.13;;;0.70;;
62861;SDS011;48953;53.110;5.592;2023-08-08T08:47:34;3.13;;;0.90;;
62861;SDS011;48953;53.110;5.592;2023-08-08T08:50:02;3.60;;;0.90;;
62861;SDS011;48953;53.110;5.592;2023-08-08T08:52:29;4.90;;;0.98;;
62861;SDS011;48953;53.110;5.592;2023-08-08T08:54:55;4.30;;;1.40;;
62861;SDS011;48953;53.110;5.592;2023-08-08T08:57:21;5.78;;;0.90;;
62861;SDS011;48953;53.110;5.592;2023-08-08T08:59:51;5.07;;;0.90;;
62861;SDS011;48953;53.110;5.592;2023-08-08T09:02:17;3.45;;;1.08;;
62861;SDS011;48953;53.110;5.592;2023-08-08T09:04:44;6.15;;;1.05;;
62861;SDS011;48953;53.110;5.592;2023-08-08T09:07:10;3.42;;;0.90;;
62861;SDS011;48953;53.110;5.592;2023-08-08T09:09:37;2.58;;;0.95;;
62861;SDS011;48953;53.110;5.592;2023-08-08T09:12:04;2.10;;;0.80;;
62861;SDS011;48953;53.110;5.592;2023-08-08T09:14:30;5.22;;;0.88;;
62861;SDS011;48953;53.110;5.592;2023-08-08T09:16:56;2.92;;;0.95;;
62861;SDS011;48953;53.110;5.592;2023-08-08T09:19:23;4.50;;;1.10;;
62861;SDS011;48953;53.110;5.592;2023-08-08T09:21:49;4.70;;;1.10;;
62861;SDS011;48953;53.110;5.592;2023-08-08T09:24:16;2.85;;;1.20;;
62861;SDS011;48953;53.110;5.592;2023-08-08T09:26:42;5.53;;;1.00;;
62861;SDS011;48953;53.110;5.592;2023-08-08T09:29:09;7.70;;;1.15;;
62861;SDS011;48953;53.110;5.592;2023-08-08T09:31:36;7.75;;;1.20;;
62861;SDS011;48953;53.110;5.592;2023-08-08T09:34:02;6.75;;;1.35;;
62861;SDS011;48953;53.110;5.592;2023-08-08T09:36:29;3.92;;;0.98;;
62861;SDS011;48953;53.110;5.592;2023-08-08T09:38:55;5.32;;;0.93;;
62861;SDS011;48953;53.110;5.592;2023-08-08T09:41:21;3.40;;;0.90;;
62861;SDS011;48953;53.110;5.592;2023-08-08T09:43:48;1.83;;;0.82;;
62861;SDS011;48953;53.110;5.592;2023-08-08T09:46:14;4.25;;;1.13;;
62861;SDS011;48953;53.110;5.592;2023-08-08T09:48:43;4.97;;;1.17;;
62861;SDS011;48953;53.110;5.592;2023-08-08T09:51:10;5.05;;;1.40;;
62861;SDS011;48953;53.110;5.592;2023-08-08T09:53:36;4.95;;;1.00;;
62861;SDS011;48953;53.110;5.592;2023-08-08T09:56:03;2.63;;;1.08;;
62861;SDS011;48953;53.110;5.592;2023-08-08T09:58:29;2.75;;;0.70;;
62861;SDS011;48953;53.110;5.592;2023-08-08T10:00:55;3.47;;;0.77;;
62861;SDS011;48953;53.110;5.592;2023-08-08T10:03:21;3.55;;;0.80;;
62861;SDS011;48953;53.110;5.592;2023-08-08T10:05:48;4.20;;;1.20;;
62861;SDS011;48953;53.110;5.592;2023-08-08T10:08:14;4.95;;;0.80;;
62861;SDS011;48953;53.110;5.592;2023-08-08T10:10:40;4.93;;;1.15;;
62861;SDS011;48953;53.110;5.592;2023-08-08T10:13:07;2.70;;;0.98;;
62861;SDS011;48953;53.110;5.592;2023-08-08T10:15:36;2.47;;;0.90;;
62861;SDS011;48953;53.110;5.592;2023-08-08T10:18:02;2.65;;;1.08;;
62861;SDS011;48953;53.110;5.592;2023-08-08T10:20:30;4.50;;;1.33;;
62861;SDS011;48953;53.110;5.592;2023-08-08T10:23:01;3.22;;;0.90;;
62861;SDS011;48953;53.110;5.592;2023-08-08T10:25:28;3.38;;;0.90;;
62861;SDS011;48953;53.110;5.592;2023-08-08T10:30:29;5.50;;;0.95;;
62861;SDS011;48953;53.110;5.592;2023-08-08T10:32:56;4.28;;;0.93;;
62861;SDS011;48953;53.110;5.592;2023-08-08T10:35:22;5.10;;;0.70;;
62861;SDS011;48953;53.110;5.592;2023-08-08T10:37:54;4.32;;;1.02;;
62861;SDS011;48953;53.110;5.592;2023-08-08T10:40:20;2.95;;;0.82;;
62861;SDS011;48953;53.110;5.592;2023-08-08T10:42:46;3.85;;;0.80;;
62861;SDS011;48953;53.110;5.592;2023-08-08T10:45:13;4.40;;;0.90;;
62861;SDS011;48953;53.110;5.592;2023-08-08T10:47:40;6.20;;;0.80;;
62861;SDS011;48953;53.110;5.592;2023-08-08T10:50:24;2.83;;;0.70;;
62861;SDS011;48953;53.110;5.592;2023-08-08T10:52:54;2.15;;;0.60;;
62861;SDS011;48953;53.110;5.592;2023-08-08T10:55:24;3.65;;;1.00;;
62861;SDS011;48953;53.110;5.592;2023-08-08T10:57:58;4.00;;;0.80;;
62861;SDS011;48953;53.110;5.592;2023-08-08T11:00:25;5.75;;;0.85;;
62861;SDS011;48953;53.110;5.592;2023-08-08T11:02:52;5.80;;;0.90;;
62861;SDS011;48953;53.110;5.592;2023-08-08T11:05:19;7.55;;;0.85;;
62861;SDS011;48953;53.110;5.592;2023-08-08T11:07:45;4.97;;;1.20;;
62861;SDS011;48953;53.110;5.592;2023-08-08T11:10:11;3.42;;;0.90;;
62861;SDS011;48953;53.110;5.592;2023-08-08T11:12:37;2.97;;;0.82;;
62861;SDS011;48953;53.110;5.592;2023-08-08T11:15:04;5.60;;;0.90;;
62861;SDS011;48953;53.110;5.592;2023-08-08T11:17:30;3.50;;;0.82;;
62861;SDS011;48953;53.110;5.592;2023-08-08T11:19:56;5.10;;;1.00;;
62861;SDS011;48953;53.110;5.592;2023-08-08T11:22:22;2.67;;;0.90;;
62861;SDS011;48953;53.110;5.592;2023-08-08T11:24:48;3.40;;;0.88;;
62861;SDS011;48953;53.110;5.592;2023-08-08T11:27:15;4.53;;;1.00;;
62861;SDS011;48953;53.110;5.592;2023-08-08T11:29:48;4.90;;;0.95;;
62861;SDS011;48953;53.110;5.592;2023-08-08T11:32:15;2.88;;;0.85;;
62861;SDS011;48953;53.110;5.592;2023-08-08T11:34:41;4.75;;;0.85;;
62861;SDS011;48953;53.110;5.592;2023-08-08T11:37:08;6.13;;;1.05;;
62861;SDS011;48953;53.110;5.592;2023-08-08T11:39:34;3.60;;;0.90;;
62861;SDS011;48953;53.110;5.592;2023-08-08T11:42:00;3.35;;;0.90;;
62861;SDS011;48953;53.110;5.592;2023-08-08T11:44:26;2.45;;;0.65;;
62861;SDS011;48953;53.110;5.592;2023-08-08T11:46:52;3.75;;;0.80;;
62861;SDS011;48953;53.110;5.592;2023-08-08T11:49:18;3.13;;;0.75;;
62861;SDS011;48953;53.110;5.592;2023-08-08T11:51:45;4.47;;;0.88;;
62861;SDS011;48953;53.110;5.592;2023-08-08T11:54:11;3.25;;;1.10;;
62861;SDS011;48953;53.110;5.592;2023-08-08T11:56:39;1.63;;;0.70;;
62861;SDS011;48953;53.110;5.592;2023-08-08T11:59:05;3.80;;;0.88;;
62861;SDS011;48953;53.110;5.592;2023-08-08T12:01:32;4.10;;;0.70;;
62861;SDS011;48953;53.110;5.592;2023-08-08T12:04:04;4.60;;;0.75;;
62861;SDS011;48953;53.110;5.592;2023-08-08T12:06:30;3.17;;;0.80;;
62861;SDS011;48953;53.110;5.592;2023-08-08T12:08:56;2.97;;;0.90;;
62861;SDS011;48953;53.110;5.592;2023-08-08T12:11:22;7.78;;;1.08;;
62861;SDS011;48953;53.110;5.592;2023-08-08T12:13:48;7.43;;;1.50;;
62861;SDS011;48953;53.110;5.592;2023-08-08T12:16:14;2.42;;;0.80;;
62861;SDS011;48953;53.110;5.592;2023-08-08T12:18:41;3.75;;;1.02;;
62861;SDS011;48953;53.110;5.592;2023-08-08T12:21:08;4.80;;;1.20;;
62861;SDS011;48953;53.110;5.592;2023-08-08T12:23:35;2.03;;;0.65;;
62861;SDS011;48953;53.110;5.592;2023-08-08T12:26:04;4.00;;;0.90;;
62861;SDS011;48953;53.110;5.592;2023-08-08T12:28:31;2.13;;;0.93;;
62861;SDS011;48953;53.110;5.592;2023-08-08T12:30:57;5.07;;;0.85;;
62861;SDS011;48953;53.110;5.592;2023-08-08T12:33:23;3.60;;;1.00;;
62861;SDS011;48953;53.110;5.592;2023-08-08T12:35:49;5.18;;;1.23;;
62861;SDS011;48953;53.110;5.592;2023-08-08T12:38:15;2.08;;;0.88;;
62861;SDS011;48953;53.110;5.592;2023-08-08T12:40:41;6.85;;;1.15;;
62861;SDS011;48953;53.110;5.592;2023-08-08T12:43:09;3.90;;;1.00;;
62861;SDS011;48953;53.110;5.592;2023-08-08T12:45:36;2.80;;;0.70;;
62861;SDS011;48953;53.110;5.592;2023-08-08T12:48:02;3.33;;;0.95;;
62861;SDS011;48953;53.110;5.592;2023-08-08T12:50:28;5.07;;;1.55;;
62861;SDS011;48953;53.110;5.592;2023-08-08T12:52:54;4.30;;;0.95;;
62861;SDS011;48953;53.110;5.592;2023-08-08T12:55:20;4.68;;;1.02;;
62861;SDS011;48953;53.110;5.592;2023-08-08T12:57:46;4.18;;;1.10;;
62861;SDS011;48953;53.110;5.592;2023-08-08T13:00:13;4.75;;;1.00;;
62861;SDS011;48953;53.110;5.592;2023-08-08T13:02:39;4.43;;;1.00;;
62861;SDS011;48953;53.110;5.592;2023-08-08T13:05:05;3.60;;;0.90;;
62861;SDS011;48953;53.110;5.592;2023-08-08T13:07:32;2.33;;;0.90;;
62861;SDS011;48953;53.110;5.592;2023-08-08T13:09:58;4.70;;;1.20;;
62861;SDS011;48953;53.110;5.592;2023-08-08T13:12:24;5.57;;;0.90;;
62861;SDS011;48953;53.110;5.592;2023-08-08T13:14:50;3.58;;;1.02;;
62861;SDS011;48953;53.110;5.592;2023-08-08T13:17:16;3.97;;;0.77;;
62861;SDS011;48953;53.110;5.592;2023-08-08T13:19:42;4.55;;;0.88;;
62861;SDS011;48953;53.110;5.592;2023-08-08T13:22:08;5.07;;;1.10;;
62861;SDS011;48953;53.110;5.592;2023-08-08T13:24:35;2.38;;;0.70;;
62861;SDS011;48953;53.110;5.592;2023-08-08T13:27:01;3.85;;;0.63;;
62861;SDS011;48953;53.110;5.592;2023-08-08T13:29:27;5.68;;;0.90;;
62861;SDS011;48953;53.110;5.592;2023-08-08T13:31:53;3.28;;;0.80;;
62861;SDS011;48953;53.110;5.592;2023-08-08T13:34:18;4.03;;;1.20;;
62861;SDS011;48953;53.110;5.592;2023-08-08T13:36:44;2.80;;;1.00;;
62861;SDS011;48953;53.110;5.592;2023-08-08T13:39:10;5.00;;;0.90;;
62861;SDS011;48953;53.110;5.592;2023-08-08T13:41:36;3.58;;;1.13;;
62861;SDS011;48953;53.110;5.592;2023-08-08T13:44:03;4.68;;;0.82;;
62861;SDS011;48953;53.110;5.592;2023-08-08T13:46:29;6.25;;;0.95;;
62861;SDS011;48953;53.110;5.592;2023-08-08T13:48:55;3.95;;;0.80;;
62861;SDS011;48953;53.110;5.592;2023-08-08T13:51:21;5.40;;;1.40;;
62861;SDS011;48953;53.110;5.592;2023-08-08T13:53:47;4.15;;;1.00;;
62861;SDS011;48953;53.110;5.592;2023-08-08T13:56:16;3.20;;;0.90;;
62861;SDS011;48953;53.110;5.592;2023-08-08T13:58:43;6.90;;;0.75;;
62861;SDS011;48953;53.110;5.592;2023-08-08T14:01:09;8.75;;;1.48;;
62861;SDS011;48953;53.110;5.592;2023-08-08T14:03:35;4.80;;;0.90;;
62861;SDS011;48953;53.110;5.592;2023-08-08T14:06:01;2.70;;;0.82;;
62861;SDS011;48953;53.110;5.592;2023-08-08T14:08:27;2.92;;;1.10;;
62861;SDS011;48953;53.110;5.592;2023-08-08T14:10:53;2.22;;;0.75;;
62861;SDS011;48953;53.110;5.592;2023-08-08T14:13:19;5.80;;;1.38;;
62861;SDS011;48953;53.110;5.592;2023-08-08T14:15:47;3.58;;;0.90;;
62861;SDS011;48953;53.110;5.592;2023-08-08T14:18:14;3.45;;;0.60;;
62861;SDS011;48953;53.110;5.592;2023-08-08T14:20:40;1.65;;;0.60;;
62861;SDS011;48953;53.110;5.592;2023-08-08T14:23:06;3.92;;;0.82;;
62861;SDS011;48953;53.110;5.592;2023-08-08T14:25:32;4.55;;;0.98;;
62861;SDS011;48953;53.110;5.592;2023-08-08T14:27:58;6.82;;;0.80;;
62861;SDS011;48953;53.110;5.592;2023-08-08T14:30:25;6.70;;;0.90;;
62861;SDS011;48953;53.110;5.592;2023-08-08T14:32:52;3.17;;;0.73;;
62861;SDS011;48953;53.110;5.592;2023-08-08T14:35:19;2.13;;;0.73;;
62861;SDS011;48953;53.110;5.592;2023-08-08T14:37:45;3.33;;;0.63;;
62861;SDS011;48953;53.110;5.592;2023-08-08T14:40:11;4.43;;;1.20;;
62861;SDS011;48953;53.110;5.592;2023-08-08T14:42:37;2.30;;;0.80;;
62861;SDS011;48953;53.110;5.592;2023-08-08T14:45:03;1.23;;;0.45;;
62861;SDS011;48953;53.110;5.592;2023-08-08T14:47:33;2.42;;;0.57;;